Time;durP1;ratioP1;P1;durP2;ratioP2;P2;SDS_P1;SDS_P2;PMS_P1;PMS_P2;Temp;Humidity;BMP_temperature;BMP_pressure;BME280_temperature;BME280_humidity;BME280_pressure;Samples;Min_cycle;Max_cycle;Signal;HPM_P1;HPM_P2
2022/03/22 00:00:07;;;;;;;19.95;13.98;;;9.70;70.60;;;;;;6276637;22;20270;-67
2022/03/22 00:02:35;;;;;;;21.42;14.77;;;9.70;70.90;;;;;;6275988;22;20182;-68
2022/03/22 00:05:02;;;;;;;22.95;15.57;;;9.70;70.90;;;;;;6277753;22;20259;-68
2022/03/22 00:07:29;;;;;;;18.17;14.43;;;9.60;71.10;;;;;;6277143;22;20594;-67
2022/03/22 00:09:56;;;;;;;19.20;14.88;;;9.60;71.20;;;;;;6276857;22;20159;-67
2022/03/22 00:12:23;;;;;;;19.67;13.93;;;9.50;71.20;;;;;;6277335;22;20197;-67
2022/03/22 00:14:50;;;;;;;20.40;14.82;;;9.50;71.40;;;;;;6277385;22;20652;-67
2022/03/22 00:17:17;;;;;;;20.52;15.60;;;9.40;71.50;;;;;;6276827;22;20161;-67
2022/03/22 00:19:45;;;;;;;25.48;17.15;;;9.40;71.70;;;;;;6276751;22;20265;-67
2022/03/22 00:22:12;;;;;;;17.73;13.65;;;9.30;72.20;;;;;;6277113;22;20237;-68
2022/03/22 00:24:39;;;;;;;19.23;14.38;;;9.20;72.40;;;;;;6278386;22;20232;-69
2022/03/22 00:27:06;;;;;;;19.92;15.00;;;9.20;72.80;;;;;;6278038;22;20162;-68
2022/03/22 00:29:34;;;;;;;17.77;14.77;;;9.10;72.90;;;;;;6277089;22;20186;-68
2022/03/22 00:32:02;;;;;;;21.05;15.90;;;9.10;73.00;;;;;;6277281;22;20209;-68
2022/03/22 00:34:28;;;;;;;19.05;14.20;;;9.10;73.10;;;;;;6277004;22;20219;-66
2022/03/22 00:36:58;;;;;;;20.05;14.82;;;9.00;73.30;;;;;;6277651;22;20197;-67
2022/03/22 00:39:26;;;;;;;17.50;14.52;;;9.00;73.50;;;;;;6276916;22;20189;-68
2022/03/22 00:41:53;;;;;;;21.27;15.63;;;9.00;73.70;;;;;;6277561;22;20186;-67
2022/03/22 00:44:22;;;;;;;20.50;14.45;;;8.90;73.90;;;;;;6277662;22;20264;-66
2022/03/22 00:46:50;;;;;;;22.63;16.17;;;8.90;73.80;;;;;;6277838;22;20221;-67
2022/03/22 00:49:17;;;;;;;23.58;16.10;;;8.90;74.30;;;;;;6278092;22;20625;-68
2022/03/22 00:51:44;;;;;;;20.85;15.02;;;9.00;73.60;;;;;;6278456;22;20163;-69
2022/03/22 00:54:12;;;;;;;22.73;15.65;;;8.90;73.50;;;;;;6278263;22;20225;-67
2022/03/22 00:56:43;;;;;;;21.35;14.40;;;9.00;73.70;;;;;;6277433;22;20189;-67
2022/03/22 01:01:55;;;;;;;22.95;16.00;;;8.90;74.10;;;;;;6277011;22;20451;-68
2022/03/22 01:04:24;;;;;;;26.75;16.52;;;8.80;74.10;;;;;;6276953;22;20272;-67
2022/03/22 01:06:51;;;;;;;18.15;14.23;;;8.70;74.50;;;;;;6276967;22;20180;-67
2022/03/22 01:09:20;;;;;;;22.10;14.38;;;8.70;74.70;;;;;;6276596;22;20154;-66
2022/03/22 01:11:47;;;;;;;18.05;14.57;;;8.70;74.70;;;;;;6276587;22;20193;-68
2022/03/22 01:14:14;;;;;;;26.48;15.63;;;8.70;74.90;;;;;;6276319;22;20494;-68
2022/03/22 01:16:42;;;;;;;22.20;15.20;;;8.70;74.90;;;;;;6276636;22;20608;-68
2022/03/22 01:19:09;;;;;;;21.73;15.40;;;8.70;75.00;;;;;;6276819;22;20228;-67
2022/03/22 01:21:38;;;;;;;21.13;15.35;;;8.60;75.00;;;;;;6276089;22;20190;-67
2022/03/22 01:24:06;;;;;;;21.33;15.70;;;8.60;75.40;;;;;;6276527;22;20263;-67
2022/03/22 01:26:34;;;;;;;23.73;15.43;;;8.60;75.80;;;;;;6276884;22;20488;-68
2022/03/22 01:29:01;;;;;;;23.52;16.40;;;8.50;75.90;;;;;;6276585;22;20165;-68
2022/03/22 01:31:28;;;;;;;19.92;15.02;;;8.50;76.10;;;;;;6275873;22;20158;-68
2022/03/22 01:33:55;;;;;;;21.70;15.35;;;8.50;76.10;;;;;;6276425;22;20272;-67
2022/03/22 01:36:22;;;;;;;19.77;15.32;;;8.50;76.40;;;;;;6276804;22;20175;-67
2022/03/22 01:38:49;;;;;;;17.45;13.85;;;8.50;76.60;;;;;;6276823;22;20245;-68
2022/03/22 01:41:17;;;;;;;20.67;15.35;;;8.40;76.70;;;;;;6275913;22;20181;-67
2022/03/22 01:43:45;;;;;;;23.33;16.52;;;8.30;76.80;;;;;;6275889;22;20217;-68
2022/03/22 01:46:13;;;;;;;20.83;15.60;;;8.40;77.10;;;;;;6276485;22;20193;-67
2022/03/22 01:48:41;;;;;;;22.88;16.05;;;8.30;77.20;;;;;;6276283;22;20626;-67
2022/03/22 01:51:10;;;;;;;21.85;15.95;;;8.30;77.50;;;;;;6275620;22;20281;-67
2022/03/22 01:53:40;;;;;;;28.27;16.98;;;8.30;77.40;;;;;;6276190;22;20268;-68
2022/03/22 01:56:07;;;;;;;22.55;16.95;;;8.30;77.30;;;;;;6276312;22;20211;-67
2022/03/22 01:58:34;;;;;;;31.60;18.63;;;8.30;77.50;;;;;;6276200;22;20623;-68
2022/03/22 02:06:33;;;;;;;22.17;16.15;;;8.10;78.30;;;;;;6276670;22;20470;-67
2022/03/22 02:09:00;;;;;;;26.58;17.88;;;8.10;78.60;;;;;;6275999;22;20599;-68
2022/03/22 02:11:28;;;;;;;27.75;15.20;;;8.10;78.80;;;;;;6275661;22;20170;-68
2022/03/22 02:13:56;;;;;;;29.38;18.30;;;8.10;79.00;;;;;;6274973;22;20255;-67
2022/03/22 02:16:24;;;;;;;27.23;18.55;;;8.00;79.50;;;;;;6277190;22;20589;-67
2022/03/22 02:18:52;;;;;;;23.88;15.88;;;8.10;79.70;;;;;;6277734;22;20194;-67
2022/03/22 02:21:21;;;;;;;20.83;15.85;;;8.10;79.70;;;;;;6276006;22;20269;-68
2022/03/22 02:23:52;;;;;;;21.50;14.27;;;8.00;79.60;;;;;;6276074;22;20233;-67
2022/03/22 02:26:19;;;;;;;20.10;14.70;;;8.00;79.50;;;;;;6276603;22;20173;-68
2022/03/22 02:28:46;;;;;;;21.70;16.27;;;8.00;79.70;;;;;;6276478;22;20169;-68
2022/03/22 02:31:14;;;;;;;18.20;14.45;;;8.00;80.00;;;;;;6274978;22;20245;-68
2022/03/22 02:33:41;;;;;;;20.38;15.18;;;8.00;80.80;;;;;;6275200;22;20207;-68
2022/03/22 02:36:08;;;;;;;19.45;14.95;;;7.90;80.30;;;;;;6276605;22;20166;-67
2022/03/22 02:38:35;;;;;;;23.92;15.60;;;7.90;80.40;;;;;;6275974;22;20196;-67
2022/03/22 02:41:04;;;;;;;23.95;16.60;;;7.90;80.50;;;;;;6275423;22;20260;-68
2022/03/22 02:43:31;;;;;;;24.50;15.75;;;7.80;80.50;;;;;;6275821;22;20270;-67
2022/03/22 02:45:58;;;;;;;19.85;13.98;;;7.70;80.80;;;;;;6276154;22;20165;-68
2022/03/22 02:48:26;;;;;;;19.90;14.10;;;7.80;81.10;;;;;;6276260;22;20524;-66
2022/03/22 02:50:54;;;;;;;22.20;14.35;;;7.70;81.40;;;;;;6275572;22;20493;-66
2022/03/22 02:53:20;;;;;;;21.02;15.73;;;7.70;81.60;;;;;;6275409;22;20207;-66
2022/03/22 02:55:47;;;;;;;20.08;15.13;;;7.70;81.60;;;;;;6275934;22;20161;-68
2022/03/22 02:58:16;;;;;;;17.17;14.45;;;7.70;82.20;;;;;;6275780;22;20266;-67
2022/03/22 03:00:42;;;;;;;21.92;16.42;;;7.70;82.90;;;;;;6274904;22;20267;-67
2022/03/22 03:03:09;;;;;;;24.83;16.50;;;7.70;82.90;;;;;;6275803;22;20244;-67
2022/03/22 03:05:37;;;;;;;24.17;16.05;;;7.70;83.10;;;;;;6276623;22;20251;-67
2022/03/22 03:08:06;;;;;;;24.92;16.20;;;7.80;82.80;;;;;;6275615;22;20167;-67
2022/03/22 03:10:33;;;;;;;23.25;15.82;;;7.70;83.00;;;;;;6275347;22;20236;-68
2022/03/22 03:13:01;;;;;;;20.45;15.32;;;7.60;83.10;;;;;;6275783;22;20161;-68
2022/03/22 03:15:30;;;;;;;21.45;15.20;;;7.70;83.20;;;;;;6276514;22;20482;-67
2022/03/22 03:17:57;;;;;;;23.83;15.00;;;7.60;83.40;;;;;;6276427;22;20243;-69
2022/03/22 03:20:25;;;;;;;22.15;16.45;;;7.50;83.70;;;;;;6275050;22;20577;-66
2022/03/22 03:22:52;;;;;;;21.52;14.25;;;7.40;84.30;;;;;;6275889;22;20225;-67
2022/03/22 03:25:20;;;;;;;20.42;15.23;;;7.50;85.10;;;;;;6275611;22;20279;-67
2022/03/22 03:27:47;;;;;;;23.35;14.98;;;7.40;85.30;;;;;;6276482;22;20172;-66
2022/03/22 03:30:15;;;;;;;18.83;14.40;;;7.40;86.20;;;;;;6276036;22;20157;-68
2022/03/22 03:32:44;;;;;;;20.15;15.02;;;7.30;85.80;;;;;;6277089;22;20161;-67
2022/03/22 03:35:11;;;;;;;23.30;16.75;;;7.30;86.50;;;;;;6277660;22;20206;-67
2022/03/22 03:37:41;;;;;;;21.75;15.63;;;7.30;87.10;;;;;;6277527;22;20240;-67
2022/03/22 03:40:09;;;;;;;22.45;16.38;;;7.30;86.70;;;;;;6277490;22;20239;-66
2022/03/22 03:42:42;;;;;;;19.85;15.27;;;7.40;86.20;;;;;;6277667;22;20213;-67
2022/03/22 03:47:58;;;;;;;22.50;15.38;;;7.40;86.00;;;;;;6278335;22;20600;-69
2022/03/22 03:50:26;;;;;;;23.85;15.85;;;7.40;86.10;;;;;;6278924;22;20221;-67
2022/03/22 03:52:53;;;;;;;22.33;16.20;;;7.30;86.60;;;;;;6282514;22;20170;-66
2022/03/22 03:55:22;;;;;;;25.02;16.92;;;7.30;87.00;;;;;;6283579;22;20282;-67
2022/03/22 03:57:49;;;;;;;18.02;13.13;;;7.20;87.20;;;;;;6284537;22;20235;-66
2022/03/22 04:00:17;;;;;;;20.08;14.05;;;7.30;87.10;;;;;;6283950;22;20191;-67
2022/03/22 04:02:46;;;;;;;21.90;14.88;;;7.40;86.90;;;;;;6282228;22;20169;-67
2022/03/22 04:05:14;;;;;;;19.60;14.68;;;7.40;87.20;;;;;;6281982;22;20200;-65
2022/03/22 04:07:41;;;;;;;22.45;15.13;;;7.40;86.50;;;;;;6281070;22;20191;-67
2022/03/22 04:10:15;;;;;;;19.70;14.80;;;7.40;86.00;;;;;;6278437;22;20207;-67
2022/03/22 04:12:42;;;;;;;23.70;14.38;;;7.40;85.80;;;;;;6277049;22;20196;-67
2022/03/22 04:15:17;;;;;;;22.35;15.50;;;7.40;86.00;;;;;;6278089;22;20201;-67
2022/03/22 04:17:44;;;;;;;20.05;15.80;;;7.40;86.70;;;;;;6277955;22;20601;-67
2022/03/22 04:20:12;;;;;;;24.77;14.82;;;7.20;86.70;;;;;;6277200;22;20660;-68
2022/03/22 04:22:40;;;;;;;21.98;15.65;;;7.20;87.50;;;;;;6277048;22;20165;-68
2022/03/22 04:25:08;;;;;;;22.13;14.95;;;7.20;88.00;;;;;;6277523;22;20202;-68
2022/03/22 04:33:07;;;;;;;21.42;15.50;;;7.00;89.00;;;;;;6277193;22;20162;-67
2022/03/22 04:35:34;;;;;;;20.30;15.65;;;7.00;89.60;;;;;;6277656;22;20198;-67
2022/03/22 04:38:02;;;;;;;22.08;16.77;;;7.00;89.90;;;;;;6277708;22;20202;-67
2022/03/22 04:40:29;;;;;;;24.13;16.30;;;7.00;90.00;;;;;;6276527;22;20183;-68
2022/03/22 04:42:56;;;;;;;22.38;16.15;;;7.00;90.00;;;;;;6276772;22;20247;-68
2022/03/22 04:45:24;;;;;;;23.77;15.57;;;7.10;90.10;;;;;;6277403;22;20282;-67
2022/03/22 04:47:51;;;;;;;23.35;15.50;;;7.00;90.20;;;;;;6277436;22;20228;-68
2022/03/22 04:50:19;;;;;;;20.13;16.23;;;7.00;90.30;;;;;;6276811;22;20534;-67
2022/03/22 04:58:17;;;;;;;25.13;19.17;;;7.00;90.20;;;;;;6277178;22;20192;-67
2022/03/22 05:00:46;;;;;;;24.48;15.75;;;6.90;90.60;;;;;;6276027;22;20180;-68
2022/03/22 05:03:13;;;;;;;20.58;15.80;;;7.00;90.70;;;;;;6276258;22;20499;-67
2022/03/22 05:08:24;;;;;;;23.75;17.05;;;6.90;90.60;;;;;;6277020;22;20163;-65
2022/03/22 05:10:54;;;;;;;17.35;13.68;;;6.90;90.90;;;;;;6276226;22;20163;-67
2022/03/22 05:13:22;;;;;;;20.13;15.00;;;7.00;90.50;;;;;;6276216;22;20234;-67
2022/03/22 05:15:50;;;;;;;26.77;15.27;;;7.10;90.30;;;;;;6276383;22;20609;-67
2022/03/22 05:18:17;;;;;;;25.83;16.70;;;7.10;90.40;;;;;;6276973;22;20198;-67
2022/03/22 05:20:44;;;;;;;22.10;16.52;;;7.10;90.30;;;;;;6275625;22;20180;-67
2022/03/22 05:23:11;;;;;;;24.40;15.68;;;7.20;90.20;;;;;;6276320;22;20159;-67
2022/03/22 05:25:38;;;;;;;21.70;14.77;;;7.20;90.00;;;;;;6276310;22;20245;-68
2022/03/22 05:28:06;;;;;;;19.70;14.88;;;7.20;90.00;;;;;;6276796;22;20174;-67
2022/03/22 05:30:33;;;;;;;20.33;14.55;;;7.20;89.80;;;;;;6275423;22;20168;-67
2022/03/22 05:33:01;;;;;;;21.85;14.95;;;7.10;89.50;;;;;;6276165;22;20244;-68
2022/03/22 05:35:29;;;;;;;24.50;17.10;;;7.10;89.80;;;;;;6276559;22;20258;-67
2022/03/22 05:37:56;;;;;;;22.02;15.70;;;7.10;90.10;;;;;;6276771;22;20239;-68
2022/03/22 05:40:23;;;;;;;21.50;15.93;;;7.10;90.20;;;;;;6275863;22;20563;-68
2022/03/22 05:42:51;;;;;;;17.48;14.45;;;7.10;90.20;;;;;;6276427;22;20247;-67
2022/03/22 05:45:19;;;;;;;21.60;17.05;;;7.10;90.30;;;;;;6276431;22;20231;-68
2022/03/22 05:47:46;;;;;;;20.80;15.13;;;7.20;90.30;;;;;;6276655;22;20202;-69
2022/03/22 05:50:13;;;;;;;21.70;16.55;;;7.20;90.10;;;;;;6276006;22;20243;-67
2022/03/22 05:52:44;;;;;;;23.00;16.10;;;7.30;90.00;;;;;;6275902;22;20168;-67
2022/03/22 05:55:12;;;;;;;22.88;16.98;;;7.40;89.80;;;;;;6275731;22;20274;-67
2022/03/22 05:57:39;;;;;;;21.23;16.85;;;7.40;89.60;;;;;;6277152;22;20291;-68
2022/03/22 06:00:09;;;;;;;27.25;17.55;;;7.50;89.50;;;;;;6277164;22;20218;-68
2022/03/22 06:02:39;;;;;;;22.63;16.55;;;7.60;89.40;;;;;;6276154;22;20172;-67
2022/03/22 06:05:08;;;;;;;22.30;15.35;;;7.60;89.20;;;;;;6276170;22;20227;-67
2022/03/22 06:07:35;;;;;;;27.42;16.48;;;7.70;89.20;;;;;;6276023;22;20160;-67
2022/03/22 06:10:04;;;;;;;24.60;16.20;;;7.80;88.90;;;;;;6275221;22;20190;-66
2022/03/22 06:12:38;;;;;;;26.30;15.82;;;8.00;88.30;;;;;;6276360;22;20214;-67
2022/03/22 06:15:16;;;;;;;22.17;15.90;;;8.10;87.70;;;;;;6248613;22;20201;-68
2022/03/22 06:17:45;;;;;;;25.92;16.25;;;8.20;86.90;;;;;;6276074;22;20542;-67
2022/03/22 06:20:13;;;;;;;22.40;15.07;;;8.10;86.20;;;;;;6275466;22;20241;-68
2022/03/22 06:22:40;;;;;;;28.20;17.20;;;8.30;86.60;;;;;;6275075;22;20491;-67
2022/03/22 06:25:08;;;;;;;24.65;17.45;;;8.30;86.30;;;;;;6275180;22;20687;-66
2022/03/22 06:27:35;;;;;;;23.58;18.73;;;8.40;85.80;;;;;;6275858;22;20204;-67
2022/03/22 06:30:04;;;;;;;21.77;15.32;;;8.40;85.50;;;;;;6275828;22;20161;-66
2022/03/22 06:32:30;;;;;;;19.17;15.27;;;8.60;85.30;;;;;;6275962;22;20495;-67
2022/03/22 06:34:59;;;;;;;21.67;16.23;;;8.70;85.00;;;;;;6274896;22;20258;-66
2022/03/22 06:37:27;;;;;;;21.52;16.05;;;8.80;84.30;;;;;;6275515;22;20556;-66
2022/03/22 06:39:54;;;;;;;22.73;15.77;;;9.10;83.70;;;;;;6275099;22;20162;-68
2022/03/22 06:42:21;;;;;;;22.75;17.00;;;9.40;83.30;;;;;;6276357;22;20562;-66
2022/03/22 06:44:49;;;;;;;22.90;16.05;;;9.70;82.10;;;;;;6275398;22;20277;-64
2022/03/22 06:47:15;;;;;;;21.77;16.30;;;10.10;80.40;;;;;;6275575;22;20159;-66
2022/03/22 06:49:43;;;;;;;27.08;16.98;;;10.50;78.60;;;;;;6274353;22;20245;-63
2022/03/22 06:52:12;;;;;;;21.10;16.33;;;10.70;77.50;;;;;;6275859;22;20234;-66
2022/03/22 06:54:41;;;;;;;25.17;17.42;;;11.20;76.40;;;;;;6275218;22;20199;-66
2022/03/22 06:57:08;;;;;;;17.90;15.60;;;11.60;74.90;;;;;;6275663;22;20193;-65
2022/03/22 06:59:35;;;;;;;21.75;15.68;;;11.80;74.00;;;;;;6275410;22;20159;-67
2022/03/22 07:02:04;;;;;;;21.35;16.40;;;12.20;72.90;;;;;;6276554;22;20185;-66
2022/03/22 07:04:32;;;;;;;20.33;16.88;;;12.70;72.10;;;;;;6277913;22;20209;-66
2022/03/22 07:06:59;;;;;;;23.17;17.48;;;13.10;70.90;;;;;;6279714;22;20154;-66
2022/03/22 07:09:27;;;;;;;23.52;18.35;;;13.50;69.10;;;;;;6280902;22;20216;-67
2022/03/22 07:11:56;;;;;;;21.55;17.88;;;13.80;67.70;;;;;;6280871;22;20166;-67
2022/03/22 07:14:25;;;;;;;20.27;17.20;;;14.10;67.30;;;;;;6277908;22;20263;-67
2022/03/22 07:16:52;;;;;;;23.48;18.33;;;14.50;65.80;;;;;;6277616;22;20589;-66
2022/03/22 07:19:22;;;;;;;19.33;16.83;;;15.10;65.10;;;;;;6278095;22;20556;-68
2022/03/22 07:21:50;;;;;;;19.20;16.52;;;15.60;63.40;;;;;;6276694;22;20651;-66
2022/03/22 07:24:18;;;;;;;20.67;17.05;;;16.00;61.20;;;;;;6277400;22;20667;-67
2022/03/22 07:26:47;;;;;;;19.10;17.00;;;16.50;60.40;;;;;;6277929;22;20165;-66
2022/03/22 07:29:14;;;;;;;21.13;17.40;;;16.80;59.00;;;;;;6276902;22;20428;-65
2022/03/22 07:31:41;;;;;;;21.40;17.67;;;16.90;58.30;;;;;;6276642;22;20472;-67
2022/03/22 07:34:11;;;;;;;20.97;16.83;;;17.00;57.60;;;;;;6276666;22;20533;-66
2022/03/22 07:36:40;;;;;;;23.03;18.37;;;17.20;56.80;;;;;;6277596;22;20394;-68
2022/03/22 07:39:07;;;;;;;22.10;16.40;;;17.40;56.50;;;;;;6277404;22;20397;-67
2022/03/22 07:41:36;;;;;;;21.33;17.40;;;17.50;56.40;;;;;;6276302;22;20498;-67
2022/03/22 07:44:06;;;;;;;19.10;15.80;;;18.10;55.50;;;;;;6276436;22;20425;-66
2022/03/22 07:46:34;;;;;;;22.97;17.93;;;18.30;54.60;;;;;;6277024;22;20833;-67
2022/03/22 07:54:26;;;;;;;20.03;17.13;;;18.50;53.80;;;;;;6276776;22;20444;-68
2022/03/22 07:56:53;;;;;;;19.40;17.40;;;18.70;53.50;;;;;;6276496;22;20420;-65
2022/03/22 07:59:22;;;;;;;23.07;18.23;;;18.70;54.00;;;;;;6276260;22;20792;-66
2022/03/22 08:01:49;;;;;;;23.30;18.20;;;19.60;53.80;;;;;;6276154;22;20424;-68
2022/03/22 08:04:16;;;;;;;27.50;17.80;;;19.60;52.80;;;;;;6276443;22;20474;-68
2022/03/22 08:06:43;;;;;;;20.73;16.80;;;19.50;52.40;;;;;;6276828;22;20443;-67
2022/03/22 08:09:10;;;;;;;23.67;18.00;;;19.90;52.20;;;;;;6277015;22;20426;-67
2022/03/22 08:11:39;;;;;;;19.23;17.00;;;20.30;52.00;;;;;;6275889;22;20391;-68
2022/03/22 08:14:07;;;;;;;20.40;17.93;;;20.40;51.90;;;;;;6276130;22;20432;-67
2022/03/22 08:16:36;;;;;;;25.17;17.03;;;20.30;51.50;;;;;;6276691;22;20393;-68
2022/03/22 08:19:04;;;;;;;28.60;18.20;;;20.20;51.70;;;;;;6276499;22;20457;-66
2022/03/22 08:21:31;;;;;;;26.50;19.73;;;20.90;51.20;;;;;;6275811;22;20425;-68
2022/03/22 08:23:58;;;;;;;23.43;18.37;;;21.10;51.30;;;;;;6276590;22;20488;-66
2022/03/22 08:26:25;;;;;;;19.90;17.40;;;21.30;50.70;;;;;;6276837;22;20392;-67
2022/03/22 08:28:52;;;;;;;21.27;18.43;;;21.80;50.80;;;;;;6276881;22;20420;-67
2022/03/22 08:31:20;;;;;;;23.60;19.00;;;22.20;50.20;;;;;;6275835;22;20874;-66
2022/03/22 08:33:48;;;;;;;23.90;17.97;;;21.90;49.40;;;;;;6275984;22;20516;-68
2022/03/22 08:36:15;;;;;;;24.20;21.60;;;22.10;50.00;;;;;;6276267;22;20440;-68
2022/03/22 08:38:43;;;;;;;26.20;21.00;;;22.40;49.70;;;;;;6276103;22;20468;-66
2022/03/22 08:41:10;;;;;;;28.20;18.53;;;22.20;49.50;;;;;;6275777;22;20468;-67
2022/03/22 08:43:37;;;;;;;22.20;18.50;;;22.30;49.20;;;;;;6276152;22;20499;-66
2022/03/22 08:46:05;;;;;;;22.23;19.87;;;22.40;48.60;;;;;;6276766;22;20405;-68
2022/03/22 08:48:32;;;;;;;21.83;18.80;;;23.30;47.90;;;;;;6276005;22;20393;-68
2022/03/22 08:51:01;;;;;;;28.60;21.33;;;23.80;47.60;;;;;;6275444;22;20435;-67
2022/03/22 08:53:28;;;;;;;28.30;21.70;;;23.60;46.90;;;;;;6275369;22;20954;-67
2022/03/22 08:55:55;;;;;;;23.27;20.00;;;24.60;46.30;;;;;;6275791;22;20476;-68
2022/03/22 08:58:22;;;;;;;25.13;19.93;;;23.90;45.90;;;;;;6275361;22;20416;-66
2022/03/22 09:00:50;;;;;;;25.40;19.03;;;23.90;46.60;;;;;;6274976;22;20431;-67
2022/03/22 09:03:19;;;;;;;24.73;20.97;;;23.80;46.40;;;;;;6275649;22;20512;-67
2022/03/22 09:08:35;;;;;;;26.40;21.13;;;24.70;45.90;;;;;;6277459;22;20431;-70
2022/03/22 09:11:04;;;;;;;31.90;21.77;;;24.50;45.60;;;;;;6275275;22;20416;-68
2022/03/22 09:13:31;;;;;;;27.73;20.80;;;24.50;45.00;;;;;;6275709;22;20805;-69
2022/03/22 09:15:58;;;;;;;24.00;21.00;;;24.70;45.60;;;;;;6276123;22;20480;-69
2022/03/22 09:18:26;;;;;;;22.90;20.60;;;24.40;45.00;;;;;;6276666;22;20385;-67
2022/03/22 09:20:53;;;;;;;25.87;21.43;;;25.80;44.60;;;;;;6275077;22;20451;-67
2022/03/22 09:23:22;;;;;;;28.53;21.03;;;25.70;43.70;;;;;;6275713;22;20943;-68
2022/03/22 09:25:50;;;;;;;26.83;21.43;;;25.90;43.50;;;;;;6276117;22;20476;-67
2022/03/22 09:28:17;;;;;;;25.87;19.03;;;25.30;43.30;;;;;;6276233;22;20389;-69
2022/03/22 09:30:45;;;;;;;24.50;20.10;;;25.90;43.60;;;;;;6274813;22;20970;-67
2022/03/22 09:33:12;;;;;;;27.93;20.90;;;26.70;42.70;;;;;;6275789;22;20651;-67
2022/03/22 09:35:39;;;;;;;26.97;21.13;;;27.30;41.70;;;;;;6276021;22;20505;-68
2022/03/22 09:38:06;;;;;;;23.73;21.40;;;27.10;41.00;;;;;;6276497;22;20772;-67
2022/03/22 09:40:36;;;;;;;23.80;20.43;;;26.50;41.20;;;;;;6276213;22;20432;-67
2022/03/22 09:43:05;;;;;;;27.57;20.90;;;26.20;42.00;;;;;;6276918;22;20504;-69
2022/03/22 09:45:34;;;;;;;24.20;21.60;;;26.00;41.50;;;;;;6277433;22;20464;-68
2022/03/22 09:48:01;;;;;;;32.97;22.03;;;26.00;42.10;;;;;;6278288;22;20852;-68
2022/03/22 09:53:16;;;;;;;27.13;22.47;;;25.90;42.30;;;;;;6275932;22;20376;-68
2022/03/22 09:55:45;;;;;;;27.90;21.70;;;26.20;41.40;;;;;;6275611;22;20614;-67
2022/03/22 09:58:14;;;;;;;29.00;23.80;;;25.80;42.20;;;;;;6275764;22;20439;-65
2022/03/22 10:00:41;;;;;;;32.83;23.10;;;25.20;42.70;;;;;;6274621;22;20932;-67
2022/03/22 10:03:09;;;;;;;25.10;21.40;;;24.70;43.40;;;;;;6275414;22;20420;-68
2022/03/22 10:05:36;;;;;;;26.47;21.90;;;24.30;42.80;;;;;;6274863;22;20894;-68
2022/03/22 10:08:07;;;;;;;27.53;22.43;;;24.80;42.80;;;;;;6275703;22;20724;-66
2022/03/22 10:10:35;;;;;;;26.40;23.50;;;25.20;42.80;;;;;;6274004;22;20809;-67
2022/03/22 10:13:05;;;;;;;28.43;23.80;;;24.80;42.60;;;;;;6275341;22;20390;-67
2022/03/22 10:15:35;;;;;;;28.80;21.47;;;24.40;42.50;;;;;;6273917;22;20440;-68
2022/03/22 10:18:05;;;;;;;25.03;20.37;;;24.40;42.40;;;;;;6273306;22;20504;-67
2022/03/22 10:20:34;;;;;;;30.50;22.80;;;24.10;43.30;;;;;;6273709;22;20483;-69
2022/03/22 10:23:03;;;;;;;25.50;21.80;;;24.20;43.80;;;;;;6273720;22;20460;-69
2022/03/22 10:25:32;;;;;;;33.20;23.53;;;24.10;44.30;;;;;;6273149;22;20390;-67
2022/03/22 10:28:00;;;;;;;25.83;20.67;;;24.10;43.90;;;;;;6272939;22;20732;-66
2022/03/22 10:30:28;;;;;;;31.17;22.37;;;24.60;43.80;;;;;;6272107;22;20390;-68
2022/03/22 10:32:57;;;;;;;27.50;21.47;;;24.80;42.60;;;;;;6273409;22;20469;-68
2022/03/22 10:35:26;;;;;;;25.77;21.93;;;25.30;43.00;;;;;;6273821;22;20429;-69
2022/03/22 10:37:54;;;;;;;30.03;22.30;;;25.40;43.20;;;;;;6274308;22;20919;-67
2022/03/22 10:40:27;;;;;;;24.67;21.17;;;24.00;43.70;;;;;;6274240;22;20395;-67
2022/03/22 10:42:58;;;;;;;25.03;21.47;;;23.40;44.40;;;;;;6274425;22;20425;-69
2022/03/22 10:45:27;;;;;;;30.20;23.43;;;23.50;45.80;;;;;;6275342;22;20393;-68
2022/03/22 10:47:55;;;;;;;31.20;21.83;;;23.00;45.60;;;;;;6276077;22;20757;-67
2022/03/22 10:50:23;;;;;;;25.30;21.07;;;22.60;46.80;;;;;;6274797;22;20393;-68
2022/03/22 10:52:53;;;;;;;30.27;22.20;;;22.40;47.20;;;;;;6275439;22;20419;-67
2022/03/22 10:55:23;;;;;;;25.83;22.23;;;22.20;47.70;;;;;;6275544;22;20444;-68
2022/03/22 10:57:51;;;;;;;27.13;22.20;;;22.30;48.10;;;;;;6274857;22;21015;-67
2022/03/22 11:00:20;;;;;;;32.03;22.50;;;22.10;48.60;;;;;;6274272;22;20872;-67
2022/03/22 11:02:50;;;;;;;28.60;22.73;;;21.80;47.90;;;;;;6274531;22;20471;-67
2022/03/22 11:05:20;;;;;;;31.50;23.37;;;21.70;48.40;;;;;;6274062;22;20942;-67
2022/03/22 11:07:49;;;;;;;29.50;22.23;;;21.60;48.50;;;;;;6275175;22;20393;-67
2022/03/22 11:10:18;;;;;;;33.57;22.33;;;21.40;48.60;;;;;;6274493;22;20693;-68
2022/03/22 11:12:45;;;;;;;27.20;22.00;;;21.40;49.30;;;;;;6274602;22;20403;-67
2022/03/22 11:15:14;;;;;;;29.80;22.57;;;21.30;49.20;;;;;;6275134;22;20498;-68
2022/03/22 11:17:42;;;;;;;26.93;23.37;;;21.40;49.20;;;;;;6274483;22;20390;-67
2022/03/22 11:20:13;;;;;;;30.27;22.10;;;21.40;50.00;;;;;;6274128;22;20420;-68
2022/03/22 11:22:49;;;;;;;28.97;21.50;;;21.30;49.60;;;;;;6273774;22;20456;-67
2022/03/22 11:25:19;;;;;;;25.13;20.87;;;21.30;49.10;;;;;;6246026;22;20424;-67
2022/03/22 11:27:57;;;;;;;27.53;20.77;;;21.50;49.60;;;;;;6272439;22;20454;-67
2022/03/22 11:30:26;;;;;;;28.63;21.40;;;21.30;49.70;;;;;;6272335;22;20474;-67
2022/03/22 11:35:53;;;;;;;24.50;20.90;;;20.90;50.00;;;;;;6273216;22;20848;-70
2022/03/22 11:38:42;;;;;;;27.57;20.23;;;20.70;49.60;;;;;;6275711;22;20605;-71
2022/03/22 11:44:16;;;;;;;25.20;20.90;;;20.70;49.20;;;;;;6251514;22;20412;-71
2022/03/22 11:46:44;;;;;;;31.43;19.87;;;20.70;49.50;;;;;;6274655;22;20743;-70
2022/03/22 11:49:21;;;;;;;32.90;22.03;;;20.60;49.70;;;;;;6274098;22;20393;-70
2022/03/22 11:51:53;;;;;;;28.57;20.70;;;20.70;50.00;;;;;;6274350;22;20399;-72
2022/03/22 11:54:22;;;;;;;30.37;21.23;;;20.70;50.30;;;;;;6276649;22;20423;-71
2022/03/22 11:56:51;;;;;;;35.37;21.20;;;20.50;50.40;;;;;;6276468;22;20415;-71
2022/03/22 11:59:20;;;;;;;26.53;20.50;;;20.50;50.60;;;;;;6277065;22;20499;-71
2022/03/22 12:02:04;;;;;;;26.40;20.13;;;20.50;50.70;;;;;;6276727;22;20483;-71
2022/03/22 12:04:40;;;;;;;27.03;20.20;;;20.60;50.90;;;;;;6276650;22;20759;-69
2022/03/22 12:07:09;;;;;;;25.27;20.13;;;20.30;50.70;;;;;;6276812;22;20876;-70
2022/03/22 12:09:39;;;;;;;26.93;18.87;;;20.20;50.50;;;;;;6276304;22;20400;-71
2022/03/22 12:12:11;;;;;;;28.27;21.23;;;20.30;50.40;;;;;;6276503;22;20443;-71
2022/03/22 12:14:39;;;;;;;24.97;20.50;;;20.30;50.20;;;;;;6276184;22;20475;-69
2022/03/22 12:17:08;;;;;;;31.00;22.00;;;20.30;50.20;;;;;;6276854;22;20441;-69
2022/03/22 12:19:36;;;;;;;27.77;21.37;;;20.30;50.90;;;;;;6276170;22;20421;-70
2022/03/22 12:22:06;;;;;;;26.80;19.60;;;20.30;51.10;;;;;;6276784;22;20402;-71
2022/03/22 12:24:34;;;;;;;26.23;19.60;;;20.20;50.30;;;;;;6276487;22;20429;-69
2022/03/22 12:27:05;;;;;;;28.37;21.03;;;20.20;50.90;;;;;;6276426;22;20415;-71
2022/03/22 12:29:37;;;;;;;26.50;20.20;;;20.10;51.10;;;;;;6276642;22;20403;-70
2022/03/22 12:32:07;;;;;;;24.30;19.77;;;20.00;51.00;;;;;;6277197;22;20421;-70
2022/03/22 12:34:38;;;;;;;31.47;21.17;;;20.10;51.10;;;;;;6275712;22;20971;-72
2022/03/22 12:37:08;;;;;;;27.30;20.60;;;20.10;51.60;;;;;;6276132;22;20401;-70
2022/03/22 12:39:38;;;;;;;29.37;20.83;;;20.20;51.10;;;;;;6276248;22;20724;-70
2022/03/22 12:42:08;;;;;;;24.60;21.00;;;20.00;51.70;;;;;;6276376;22;20393;-71
2022/03/22 12:44:35;;;;;;;28.53;20.03;;;20.10;52.40;;;;;;6276703;22;20557;-71
2022/03/22 12:47:04;;;;;;;30.60;21.33;;;20.00;52.80;;;;;;6276979;22;20390;-70
2022/03/22 12:49:32;;;;;;;27.23;20.50;;;20.00;52.90;;;;;;6276120;22;20458;-71
2022/03/22 12:52:01;;;;;;;27.70;20.40;;;20.00;51.30;;;;;;6276684;22;20397;-70
2022/03/22 12:54:32;;;;;;;27.00;19.73;;;20.10;51.50;;;;;;6276656;22;20559;-70
2022/03/22 12:57:01;;;;;;;29.70;20.53;;;20.20;51.90;;;;;;6276684;22;20444;-71
2022/03/22 12:59:30;;;;;;;30.00;22.50;;;20.00;52.30;;;;;;6276087;22;20390;-70
2022/03/22 13:01:59;;;;;;;32.57;21.40;;;20.10;52.00;;;;;;6276845;22;20492;-70
2022/03/22 13:04:29;;;;;;;27.53;20.50;;;20.10;52.20;;;;;;6275725;22;20471;-70
2022/03/22 13:06:58;;;;;;;21.27;17.40;;;20.00;51.30;;;;;;6275223;22;20409;-71
2022/03/22 13:12:22;;;;;;;32.90;19.67;;;20.00;50.60;;;;;;6182044;23;20430;-70
2022/03/22 13:15:01;;;;;;;32.07;20.43;;;20.00;50.60;;;;;;6253711;22;20459;-69
2022/03/22 13:17:29;;;;;;;24.10;19.00;;;19.90;50.90;;;;;;6276398;22;20378;-69
2022/03/22 13:19:57;;;;;;;24.73;17.13;;;20.00;50.50;;;;;;6275935;22;20472;-69